sensor_id;sensor_type;location;lat;lon;timestamp;pressure;altitude;pressure_sealevel;temperature;humidity
30021;BME280;16861;52.294;7.760;2024-03-25T00:04:12;98701.09;;;7.97;80.16
30021;BME280;16861;52.294;7.760;2024-03-25T00:10:25;98710.84;;;7.94;80.27
30021;BME280;16861;52.294;7.760;2024-03-25T00:16:38;98715.16;;;7.95;80.35
30021;BME280;16861;52.294;7.760;2024-03-25T00:26:31;98716.81;;;7.97;80.41
30021;BME280;16861;52.294;7.760;2024-03-25T00:32:44;98724.78;;;7.95;80.21
30021;BME280;16861;52.294;7.760;2024-03-25T07:11:47;98907.56;;;7.46;80.50
30021;BME280;16861;52.294;7.760;2024-03-25T07:14:13;98906.94;;;7.57;83.11
30021;BME280;16861;52.294;7.760;2024-03-25T07:16:54;98907.50;;;7.62;81.41
30021;BME280;16861;52.294;7.760;2024-03-25T07:19:20;98903.31;;;7.74;83.37
30021;BME280;16861;52.294;7.760;2024-03-25T07:21:45;98898.47;;;7.82;82.96
30021;BME280;16861;52.294;7.760;2024-03-25T07:27:19;98902.50;;;8.03;82.94
30021;BME280;16861;52.294;7.760;2024-03-25T07:29:45;98909.91;;;8.11;82.55
30021;BME280;16861;52.294;7.760;2024-03-25T07:32:31;98913.19;;;8.14;80.25
30021;BME280;16861;52.294;7.760;2024-03-25T07:34:57;98911.69;;;8.25;81.91
30021;BME280;16861;52.294;7.760;2024-03-25T07:37:23;98908.78;;;8.29;81.92
30021;BME280;16861;52.294;7.760;2024-03-25T07:40:05;98912.19;;;8.31;79.26
30021;BME280;16861;52.294;7.760;2024-03-25T07:42:31;98902.03;;;8.40;81.25
30021;BME280;16861;52.294;7.760;2024-03-25T07:45:10;98901.94;;;8.41;79.17
30021;BME280;16861;52.294;7.760;2024-03-25T07:47:35;98907.56;;;8.50;81.79
30021;BME280;16861;52.294;7.760;2024-03-25T07:50:02;98906.28;;;8.57;82.50
30021;BME280;16861;52.294;7.760;2024-03-25T07:52:38;98908.72;;;8.60;79.81
30021;BME280;16861;52.294;7.760;2024-03-25T07:55:07;98918.63;;;8.69;82.30
30021;BME280;16861;52.294;7.760;2024-03-25T07:57:32;98914.78;;;8.75;82.06
30021;BME280;16861;52.294;7.760;2024-03-25T08:02:51;98922.63;;;8.90;81.62
30021;BME280;16861;52.294;7.760;2024-03-25T08:05:25;98929.44;;;8.92;79.60
30021;BME280;16861;52.294;7.760;2024-03-25T08:07:50;98926.41;;;8.98;80.72
30021;BME280;16861;52.294;7.760;2024-03-25T08:10:16;98929.72;;;9.02;79.72
30021;BME280;16861;52.294;7.760;2024-03-25T08:12:43;98931.38;;;9.03;79.58
30021;BME280;16861;52.294;7.760;2024-03-25T08:15:09;98924.47;;;9.02;78.99
30021;BME280;16861;52.294;7.760;2024-03-25T08:17:35;98919.31;;;9.01;79.36
30021;BME280;16861;52.294;7.760;2024-03-25T08:20:01;98920.25;;;8.99;79.57
30021;BME280;16861;52.294;7.760;2024-03-25T08:22:28;98927.19;;;9.01;79.81
30021;BME280;16861;52.294;7.760;2024-03-25T08:27:43;98930.69;;;9.14;81.26
30021;BME280;16861;52.294;7.760;2024-03-25T08:30:10;98932.00;;;9.21;81.32
30021;BME280;16861;52.294;7.760;2024-03-25T08:32:36;98934.97;;;9.30;81.40
30021;BME280;16861;52.294;7.760;2024-03-25T08:35:02;98942.25;;;9.39;81.30
30021;BME280;16861;52.294;7.760;2024-03-25T08:37:28;98943.72;;;9.43;78.96
30021;BME280;16861;52.294;7.760;2024-03-25T08:39:53;98936.47;;;9.47;78.93
30021;BME280;16861;52.294;7.760;2024-03-25T08:42:26;98947.94;;;9.46;74.93
30021;BME280;16861;52.294;7.760;2024-03-25T08:44:51;98931.94;;;9.49;78.48
30021;BME280;16861;52.294;7.760;2024-03-25T08:47:17;98932.81;;;9.49;78.92
30021;BME280;16861;52.294;7.760;2024-03-25T08:49:55;98931.84;;;9.50;77.23
30021;BME280;16861;52.294;7.760;2024-03-25T08:52:20;98932.94;;;9.61;80.95
30021;BME280;16861;52.294;7.760;2024-03-25T08:54:46;98935.91;;;9.69;80.65
30021;BME280;16861;52.294;7.760;2024-03-25T08:57:13;98934.44;;;9.78;81.03
30021;BME280;16861;52.294;7.760;2024-03-25T08:59:39;98943.28;;;9.90;80.93
30021;BME280;16861;52.294;7.760;2024-03-25T09:02:05;98943.59;;;9.98;79.33
30021;BME280;16861;52.294;7.760;2024-03-25T09:04:32;98939.63;;;10.06;79.12
30021;BME280;16861;52.294;7.760;2024-03-25T09:06:57;98940.91;;;10.13;79.82
30021;BME280;16861;52.294;7.760;2024-03-25T09:09:42;98942.47;;;10.15;76.32
30021;BME280;16861;52.294;7.760;2024-03-25T09:12:26;98938.06;;;10.29;79.60
30021;BME280;16861;52.294;7.760;2024-03-25T09:14:52;98929.72;;;10.35;79.60
30021;BME280;16861;52.294;7.760;2024-03-25T09:17:55;98933.91;;;10.38;75.36
30021;BME280;16861;52.294;7.760;2024-03-25T09:20:26;98936.78;;;10.48;76.56
30021;BME280;16861;52.294;7.760;2024-03-25T09:22:52;98942.47;;;10.54;79.66
30021;BME280;16861;52.294;7.760;2024-03-25T09:25:18;98941.09;;;10.62;79.51
30021;BME280;16861;52.294;7.760;2024-03-25T09:30:33;98935.47;;;10.79;79.85
30021;BME280;16861;52.294;7.760;2024-03-25T09:32:59;98939.38;;;10.87;79.94
30021;BME280;16861;52.294;7.760;2024-03-25T09:36:02;98925.94;;;10.90;75.10
30021;BME280;16861;52.294;7.760;2024-03-25T09:38:27;98931.19;;;11.03;79.42
30021;BME280;16861;52.294;7.760;2024-03-25T09:40:53;98930.63;;;11.11;79.42
30021;BME280;16861;52.294;7.760;2024-03-25T09:43:44;98936.41;;;11.16;74.11
30021;BME280;16861;52.294;7.760;2024-03-25T09:46:13;98937.19;;;11.29;80.04
30021;BME280;16861;52.294;7.760;2024-03-25T09:51:31;98935.59;;;11.51;78.03
30021;BME280;16861;52.294;7.760;2024-03-25T09:53:59;98935.97;;;11.58;76.21
30021;BME280;16861;52.294;7.760;2024-03-25T09:56:25;98934.56;;;11.65;76.64
30021;BME280;16861;52.294;7.760;2024-03-25T09:59:01;98943.19;;;11.67;72.43
30021;BME280;16861;52.294;7.760;2024-03-25T10:01:27;98934.72;;;11.75;76.17
30021;BME280;16861;52.294;7.760;2024-03-25T10:06:41;98928.66;;;11.86;77.23
30021;BME280;16861;52.294;7.760;2024-03-25T10:09:13;98928.28;;;11.91;72.20
30021;BME280;16861;52.294;7.760;2024-03-25T10:11:39;98924.09;;;11.99;75.45
30021;BME280;16861;52.294;7.760;2024-03-25T10:14:10;98925.78;;;12.01;71.51
30021;BME280;16861;52.294;7.760;2024-03-25T10:16:35;98925.47;;;12.05;73.24
30021;BME280;16861;52.294;7.760;2024-03-25T10:19:01;98933.47;;;12.04;71.84
30021;BME280;16861;52.294;7.760;2024-03-25T10:24:45;98924.06;;;11.88;68.73
30021;BME280;16861;52.294;7.760;2024-03-25T10:27:21;98937.63;;;11.83;69.29
30021;BME280;16861;52.294;7.760;2024-03-25T10:29:55;98924.78;;;11.79;69.67
30021;BME280;16861;52.294;7.760;2024-03-25T10:32:21;98933.53;;;11.79;72.54
30021;BME280;16861;52.294;7.760;2024-03-25T10:34:59;98932.19;;;11.73;69.25
30021;BME280;16861;52.294;7.760;2024-03-25T10:37:33;98932.09;;;11.75;69.62
30021;BME280;16861;52.294;7.760;2024-03-25T10:40:00;98927.31;;;11.80;73.31
30021;BME280;16861;52.294;7.760;2024-03-25T10:42:26;98927.78;;;11.85;72.25
30021;BME280;16861;52.294;7.760;2024-03-25T10:45:08;98917.25;;;11.85;63.50
30021;BME280;16861;52.294;7.760;2024-03-25T10:47:34;98920.38;;;11.91;70.49
30021;BME280;16861;52.294;7.760;2024-03-25T10:50:08;98921.31;;;11.90;66.64
30021;BME280;16861;52.294;7.760;2024-03-25T10:52:36;98924.81;;;11.90;68.62
30021;BME280;16861;52.294;7.760;2024-03-25T10:55:03;98914.28;;;11.90;68.90
30021;BME280;16861;52.294;7.760;2024-03-25T10:57:30;98912.13;;;11.95;71.30
30021;BME280;16861;52.294;7.760;2024-03-25T10:59:57;98910.47;;;12.06;72.19
30021;BME280;16861;52.294;7.760;2024-03-25T11:02:24;98918.03;;;12.22;73.24
30021;BME280;16861;52.294;7.760;2024-03-25T11:04:51;98906.88;;;12.41;71.57
30021;BME280;16861;52.294;7.760;2024-03-25T11:07:42;98902.94;;;12.58;67.07
30021;BME280;16861;52.294;7.760;2024-03-25T11:10:08;98906.03;;;12.75;71.73
30021;BME280;16861;52.294;7.760;2024-03-25T11:12:40;98905.28;;;12.84;69.38
30021;BME280;16861;52.294;7.760;2024-03-25T11:15:06;98904.66;;;12.92;69.95
30021;BME280;16861;52.294;7.760;2024-03-25T11:17:49;98901.91;;;12.94;65.64
30021;BME280;16861;52.294;7.760;2024-03-25T11:20:18;98899.72;;;12.99;66.84
30021;BME280;16861;52.294;7.760;2024-03-25T11:22:50;98897.09;;;12.99;66.07
30021;BME280;16861;52.294;7.760;2024-03-25T11:25:17;98901.41;;;13.00;68.03
30021;BME280;16861;52.294;7.760;2024-03-25T11:27:43;98900.69;;;12.98;67.56
30021;BME280;16861;52.294;7.760;2024-03-25T11:33:07;98885.09;;;12.95;69.55
30021;BME280;16861;52.294;7.760;2024-03-25T11:35:39;98884.72;;;12.99;66.77
30021;BME280;16861;52.294;7.760;2024-03-25T11:38:05;98886.50;;;13.10;66.75
30021;BME280;16861;52.294;7.760;2024-03-25T11:40:31;98890.25;;;13.29;70.11
30021;BME280;16861;52.294;7.760;2024-03-25T11:42:58;98874.84;;;13.34;67.94
30021;BME280;16861;52.294;7.760;2024-03-25T11:45:24;98875.06;;;13.42;69.58
30021;BME280;16861;52.294;7.760;2024-03-25T11:50:57;98863.75;;;13.52;68.36
30021;BME280;16861;52.294;7.760;2024-03-25T11:53:23;98868.06;;;13.53;67.79
30021;BME280;16861;52.294;7.760;2024-03-25T11:55:55;98864.97;;;13.48;64.19
30021;BME280;16861;52.294;7.760;2024-03-25T11:58:20;98863.16;;;13.48;67.72
30021;BME280;16861;52.294;7.760;2024-03-25T12:01:00;98862.94;;;13.40;64.32
30021;BME280;16861;52.294;7.760;2024-03-25T12:03:26;98851.38;;;13.41;67.40
30021;BME280;16861;52.294;7.760;2024-03-25T12:06:06;98853.69;;;13.34;62.88
30021;BME280;16861;52.294;7.760;2024-03-25T12:08:32;98848.41;;;13.34;66.38
30021;BME280;16861;52.294;7.760;2024-03-25T12:11:29;98853.50;;;13.26;61.51
30021;BME280;16861;52.294;7.760;2024-03-25T12:13:55;98845.69;;;13.24;65.57
30021;BME280;16861;52.294;7.760;2024-03-25T12:16:22;98841.63;;;13.20;66.43
30021;BME280;16861;52.294;7.760;2024-03-25T12:19:08;98837.00;;;13.12;62.21
30021;BME280;16861;52.294;7.760;2024-03-25T12:21:34;98833.84;;;13.19;67.57
30021;BME280;16861;52.294;7.760;2024-03-25T12:24:00;98832.63;;;13.23;67.07
30021;BME280;16861;52.294;7.760;2024-03-25T12:29:25;98830.25;;;13.41;68.95
30021;BME280;16861;52.294;7.760;2024-03-25T12:32:05;98818.97;;;13.60;60.69
30021;BME280;16861;52.294;7.760;2024-03-25T12:34:34;98812.59;;;13.94;68.90
30021;BME280;16861;52.294;7.760;2024-03-25T12:37:04;98810.59;;;14.17;62.02
30021;BME280;16861;52.294;7.760;2024-03-25T16:45:11;98570.63;;;14.28;52.62
30021;BME280;16861;52.294;7.760;2024-03-25T16:47:37;98559.47;;;14.14;52.83
30021;BME280;16861;52.294;7.760;2024-03-25T16:50:05;98565.03;;;14.01;50.96
30021;BME280;16861;52.294;7.760;2024-03-25T16:52:35;98557.09;;;13.91;50.87
30021;BME280;16861;52.294;7.760;2024-03-25T16:55:07;98556.28;;;13.81;52.36
30021;BME280;16861;52.294;7.760;2024-03-25T16:57:41;98554.59;;;13.70;51.21
30021;BME280;16861;52.294;7.760;2024-03-25T17:00:10;98551.53;;;13.65;53.52
30021;BME280;16861;52.294;7.760;2024-03-25T17:02:37;98550.53;;;13.56;53.69
